Thunder radar more information blitzortung!


Radar de pluja more information rain snow radar


Visita la nostra xarxa de llocs de meteo:

Template documentation
and downloads

And another site



Extreme low temperature From: 13-12-2017 09:00 Until: 09:59 warning for: Extreme low temperature Level: Yellow info button

Pagina Historial Weather Underground text

Diari Resum Octubre 15, 2017 Unitats:  Mètric    Imperial   Tant
« Previous Dia
SegĂźent Dia »
Diari Setmana Mensual Anual Personalitzada
  Maxima: Minima: Media:
Temperatura: 26.4 °C 14.6 °C 19.3 °C
Punt de rosada: 17.9 °C 13.0 °C 14.8 °C
Humitat: 92 % 52 % 76 %
Wind Speed: 14.8 km/h 0.0 km/h 3.3 km/h
RĂ fegues de vent: 14.8 km/h - -
Vent:- - SSE
Pression baro: 1029.0 hPa 1026.0 hPa -
Precipitacions: 0.0 mm    
Historical Graphs
 
 
Dades de taula per Octubre 15, 2017
Temps Temperatura Punt de rosada Pression baro Vent Wind Speed RĂ fegues de vent Humitat Rainfall Rate (Hourly)
00:00 17.7 °C 14.6 °C 1028.0 hPa Calm     82 % 0.0 mm
00:05 17.6 °C 14.7 °C 1028.0 hPa Calm     83 % 0.0 mm
00:10 17.5 °C 14.6 °C 1028.0 hPa Calm     83 % 0.0 mm
00:15 17.6 °C 14.7 °C 1028.0 hPa Calm     83 % 0.0 mm
00:20 17.5 °C 14.6 °C 1028.0 hPa Calm     83 % 0.0 mm
00:25 17.4 °C 14.5 °C 1028.0 hPa Calm     83 % 0.0 mm
00:30 17.4 °C 14.7 °C 1028.0 hPa Calm     84 % 0.0 mm
00:31 17.4 °C 14.7 °C 1028.0 hPa Calm     84 % 0.0 mm
00:36 17.4 °C 14.7 °C 1028.0 hPa Calm     84 % 0.0 mm
00:41 17.3 °C 14.6 °C 1028.0 hPa Calm     84 % 0.0 mm
00:46 17.3 °C 14.6 °C 1028.0 hPa Calm     84 % 0.0 mm
00:51 17.2 °C 14.4 °C 1028.0 hPa Calm     84 % 0.0 mm
00:56 17.2 °C 14.7 °C 1028.0 hPa Calm     85 % 0.0 mm
01:01 17.2 °C 14.7 °C 1028.0 hPa Calm     85 % 0.0 mm
01:06 17.1 °C 14.6 °C 1028.0 hPa Calm     85 % 0.0 mm
01:11 17.1 °C 14.6 °C 1028.0 hPa Calm     85 % 0.0 mm
01:12 17.0 °C 14.4 °C 1028.0 hPa Calm     85 % 0.0 mm
01:17 17.0 °C 14.4 °C 1028.0 hPa Calm     85 % 0.0 mm
01:22 16.9 °C 14.3 °C 1028.0 hPa Calm     85 % 0.0 mm
01:27 16.7 °C 14.2 °C 1028.0 hPa North 2.3 km/h 2.3 km/h 85 % 0.0 mm
01:32 16.7 °C 14.2 °C 1028.0 hPa WNW 3.7 km/h 3.7 km/h 85 % 0.0 mm
01:37 16.8 °C 14.4 °C 1028.0 hPa WNW 1.9 km/h   86 % 0.0 mm
01:42 16.7 °C 14.3 °C 1028.0 hPa WNW 1.9 km/h 1.9 km/h 86 % 0.0 mm
01:47 16.7 °C 14.3 °C 1028.0 hPa WNW 1.9 km/h 1.9 km/h 86 % 0.0 mm
01:52 16.7 °C 14.3 °C 1028.0 hPa WNW 1.9 km/h 1.9 km/h 86 % 0.0 mm
01:57 16.7 °C 14.5 °C 1027.0 hPa Calm     87 % 0.0 mm
02:02 16.6 °C 14.4 °C 1027.0 hPa Calm     87 % 0.0 mm
02:07 16.6 °C 14.4 °C 1027.0 hPa Calm     87 % 0.0 mm
02:12 16.5 °C 14.3 °C 1028.0 hPa Calm     87 % 0.0 mm
02:17 16.5 °C 14.3 °C 1028.0 hPa Calm     87 % 0.0 mm
02:22 16.4 °C 14.2 °C 1028.0 hPa North 2.3 km/h 2.3 km/h 87 % 0.0 mm
02:27 16.3 °C 14.1 °C 1028.0 hPa NNE 3.7 km/h 3.7 km/h 87 % 0.0 mm
02:32 16.3 °C 14.1 °C 1028.0 hPa Calm     87 % 0.0 mm
02:37 16.3 °C 14.3 °C 1028.0 hPa Calm     88 % 0.0 mm
02:42 16.2 °C 14.2 °C 1028.0 hPa Calm     88 % 0.0 mm
02:47 16.2 °C 14.2 °C 1028.0 hPa Calm     88 % 0.0 mm
02:52 15.9 °C 13.7 °C 1028.0 hPa Calm     87 % 0.0 mm
02:57 15.8 °C 13.7 °C 1028.0 hPa Calm     87 % 0.0 mm
03:02 15.7 °C 13.7 °C 1028.0 hPa Calm     88 % 0.0 mm
03:07 15.7 °C 13.7 °C 1028.0 hPa Calm     88 % 0.0 mm
03:12 15.6 °C 13.6 °C 1028.0 hPa Calm     88 % 0.0 mm
03:17 15.6 °C 13.6 °C 1028.0 hPa Calm     88 % 0.0 mm
03:22 15.5 °C 13.5 °C 1028.0 hPa Calm     88 % 0.0 mm
03:27 15.5 °C 13.5 °C 1028.0 hPa Calm     88 % 0.0 mm
03:32 15.4 °C 13.4 °C 1028.0 hPa Calm     88 % 0.0 mm
03:37 15.4 °C 13.4 °C 1028.0 hPa Calm     88 % 0.0 mm
03:42 15.4 °C 13.6 °C 1028.0 hPa Calm     89 % 0.0 mm
03:47 15.4 °C 13.6 °C 1028.0 hPa Calm     89 % 0.0 mm
03:52 15.4 °C 13.6 °C 1028.0 hPa Calm     89 % 0.0 mm
03:57 15.4 °C 13.6 °C 1028.0 hPa Calm     89 % 0.0 mm
04:02 15.5 °C 13.7 °C 1028.0 hPa Calm     89 % 0.0 mm
04:07 15.5 °C 13.7 °C 1028.0 hPa Calm     89 % 0.0 mm
04:12 15.5 °C 13.7 °C 1028.0 hPa ENE 1.9 km/h 1.9 km/h 89 % 0.0 mm
04:17 15.5 °C 13.7 °C 1028.0 hPa NNE 3.7 km/h 3.7 km/h 89 % 0.0 mm
04:22 15.6 °C 13.8 °C 1028.0 hPa ENE 1.9 km/h 1.9 km/h 89 % 0.0 mm
04:27 15.6 °C 13.6 °C 1027.0 hPa ENE 3.7 km/h 3.7 km/h 88 % 0.0 mm
04:32 15.6 °C 13.6 °C 1027.0 hPa North 1.9 km/h 1.9 km/h 88 % 0.0 mm
04:37 15.7 °C 13.7 °C 1027.0 hPa NNE 3.7 km/h 3.7 km/h 88 % 0.0 mm
04:42 15.7 °C 13.7 °C 1028.0 hPa NNE 5.6 km/h 5.6 km/h 88 % 0.0 mm
04:47 15.7 °C 13.7 °C 1028.0 hPa Calm     88 % 0.0 mm
04:52 15.6 °C 13.6 °C 1028.0 hPa Calm     88 % 0.0 mm
04:57 15.6 °C 13.6 °C 1027.0 hPa NNW 1.9 km/h 1.9 km/h 88 % 0.0 mm
05:02 15.6 °C 13.6 °C 1027.0 hPa Calm     88 % 0.0 mm
05:07 15.6 °C 13.6 °C 1027.0 hPa Calm     88 % 0.0 mm
05:12 15.5 °C 13.5 °C 1027.0 hPa West 1.9 km/h 1.9 km/h 88 % 0.0 mm
05:17 15.5 °C 13.5 °C 1027.0 hPa West 1.9 km/h 1.9 km/h 88 % 0.0 mm
05:22 15.5 °C 13.5 °C 1027.0 hPa Calm     88 % 0.0 mm
05:27 15.5 °C 13.5 °C 1028.0 hPa Calm     88 % 0.0 mm
05:32 15.5 °C 13.5 °C 1028.0 hPa Calm     88 % 0.0 mm
05:37 15.5 °C 13.5 °C 1028.0 hPa Calm     88 % 0.0 mm
05:42 15.5 °C 13.5 °C 1028.0 hPa SW 3.7 km/h 3.7 km/h 88 % 0.0 mm
05:47 15.5 °C 13.5 °C 1028.0 hPa Calm     88 % 0.0 mm
05:52 15.4 °C 13.6 °C 1028.0 hPa Calm     89 % 0.0 mm
05:57 15.4 °C 13.4 °C 1028.0 hPa Calm     88 % 0.0 mm
06:02 15.3 °C 13.5 °C 1028.0 hPa Calm     89 % 0.0 mm
06:07 15.3 °C 13.5 °C 1028.0 hPa Calm     89 % 0.0 mm
06:12 15.3 °C 13.5 °C 1028.0 hPa Calm     89 % 0.0 mm
06:17 15.3 °C 13.5 °C 1028.0 hPa Calm     89 % 0.0 mm
06:22 15.3 °C 13.5 °C 1028.0 hPa Calm     89 % 0.0 mm
06:27 15.3 °C 13.5 °C 1028.0 hPa Calm     89 % 0.0 mm
06:32 15.3 °C 13.5 °C 1028.0 hPa Calm     89 % 0.0 mm
06:37 15.3 °C 13.5 °C 1028.0 hPa SSE 2.3 km/h   89 % 0.0 mm
06:42 15.0 °C 13.2 °C 1028.0 hPa South 1.9 km/h   89 % 0.0 mm
06:47 15.0 °C 13.2 °C 1028.0 hPa Calm     89 % 0.0 mm
06:52 14.9 °C 13.1 °C 1028.0 hPa South 1.9 km/h 1.9 km/h 89 % 0.0 mm
06:57 15.0 °C 13.2 °C 1028.0 hPa Calm     89 % 0.0 mm
07:02 15.0 °C 13.2 °C 1028.0 hPa Calm     89 % 0.0 mm
07:03 15.0 °C 13.2 °C 1028.0 hPa Calm     89 % 0.0 mm
07:08 14.9 °C 13.1 °C 1028.0 hPa South 2.3 km/h 2.3 km/h 89 % 0.0 mm
07:13 15.0 °C 13.2 °C 1028.0 hPa South 3.7 km/h 3.7 km/h 89 % 0.0 mm
07:18 14.9 °C 13.1 °C 1028.0 hPa SSW 3.7 km/h 3.7 km/h 89 % 0.0 mm
07:23 14.9 °C 13.1 °C 1028.0 hPa SW 3.7 km/h 3.7 km/h 89 % 0.0 mm
07:28 15.0 °C 13.4 °C 1028.0 hPa WSW 3.7 km/h   90 % 0.0 mm
07:33 15.0 °C 13.4 °C 1028.0 hPa Calm     90 % 0.0 mm
07:38 15.0 °C 13.4 °C 1028.0 hPa WSW 1.9 km/h   90 % 0.0 mm
07:40 15.0 °C 13.4 °C 1028.0 hPa WSW 1.9 km/h   90 % 0.0 mm
07:45 15.0 °C 13.4 °C 1028.0 hPa Calm     90 % 0.0 mm
07:50 14.9 °C 13.4 °C 1028.0 hPa Calm     91 % 0.0 mm
07:55 14.8 °C 13.2 °C 1028.0 hPa Calm     90 % 0.0 mm
08:00 14.7 °C 13.1 °C 1027.0 hPa Calm     90 % 0.0 mm
08:05 14.7 °C 13.1 °C 1027.0 hPa Calm     90 % 0.0 mm
08:10 14.7 °C 13.1 °C 1027.0 hPa Calm     90 % 0.0 mm
08:15 14.6 °C 13.0 °C 1028.0 hPa Calm     90 % 0.0 mm
08:20 14.6 °C 13.2 °C 1028.0 hPa Calm     91 % 0.0 mm
08:25 14.6 °C 13.2 °C 1028.0 hPa Calm     91 % 0.0 mm
08:30 14.7 °C 13.2 °C 1028.0 hPa Calm     91 % 0.0 mm
08:35 14.9 °C 13.4 °C 1028.0 hPa Calm     91 % 0.0 mm
08:40 15.1 °C 13.8 °C 1028.0 hPa Calm     92 % 0.0 mm
08:45 15.2 °C 13.7 °C 1028.0 hPa NNE 3.7 km/h 3.7 km/h 91 % 0.0 mm
08:50 15.4 °C 13.9 °C 1028.0 hPa NW 4.2 km/h 4.2 km/h 91 % 0.0 mm
08:55 15.8 °C 14.3 °C 1028.0 hPa NNW 1.9 km/h 1.9 km/h 91 % 0.0 mm
09:00 16.1 °C 14.4 °C 1027.0 hPa NNW 3.7 km/h 3.7 km/h 90 % 0.0 mm
09:05 16.1 °C 14.4 °C 1027.0 hPa South 3.7 km/h 3.7 km/h 90 % 0.0 mm
09:10 16.1 °C 14.4 °C 1027.0 hPa Calm     90 % 0.0 mm
09:15 16.3 °C 14.5 °C 1028.0 hPa NE 3.7 km/h   89 % 0.0 mm
09:20 16.4 °C 14.6 °C 1028.0 hPa North 4.2 km/h 4.2 km/h 89 % 0.0 mm
09:25 16.4 °C 14.4 °C 1028.0 hPa ENE 5.0 km/h 5.0 km/h 88 % 0.0 mm
09:30 16.4 °C 14.4 °C 1028.0 hPa WSW 1.9 km/h   88 % 0.0 mm
09:35 16.7 °C 14.7 °C 1028.0 hPa West 1.9 km/h 1.9 km/h 88 % 0.0 mm
09:40 17.0 °C 14.8 °C 1028.0 hPa WNW 1.9 km/h 1.9 km/h 87 % 0.0 mm
09:45 17.6 °C 15.4 °C 1029.0 hPa NW 3.7 km/h 3.7 km/h 87 % 0.0 mm
09:50 18.0 °C 15.4 °C 1029.0 hPa NW 3.9 km/h 3.9 km/h 85 % 0.0 mm
09:55 18.4 °C 15.7 °C 1029.0 hPa NNE 5.6 km/h 5.6 km/h 84 % 0.0 mm
10:00 18.7 °C 15.8 °C 1028.0 hPa ENE 1.9 km/h 1.9 km/h 83 % 0.0 mm
10:05 19.0 °C 15.8 °C 1028.0 hPa NE 4.2 km/h 4.2 km/h 82 % 0.0 mm
10:10 19.1 °C 15.8 °C 1028.0 hPa NNE 7.4 km/h 7.4 km/h 81 % 0.0 mm
10:15 19.0 °C 15.4 °C 1029.0 hPa NNE 5.6 km/h 5.6 km/h 80 % 0.0 mm
10:20 19.1 °C 15.6 °C 1029.0 hPa ENE 11.1 km/h 11.1 km/h 80 % 0.0 mm
10:25 19.3 °C 15.6 °C 1029.0 hPa NE 6.9 km/h 6.9 km/h 79 % 0.0 mm
10:30 19.5 °C 15.8 °C 1029.0 hPa ENE 7.4 km/h 7.4 km/h 79 % 0.0 mm
10:33 19.6 °C 15.7 °C 1029.0 hPa NE 9.3 km/h 9.3 km/h 78 % 0.0 mm
10:38 19.6 °C 15.7 °C 1029.0 hPa NE 5.6 km/h 5.6 km/h 78 % 0.0 mm
10:43 19.9 °C 15.7 °C 1028.0 hPa NE 6.1 km/h 6.1 km/h 77 % 0.0 mm
10:48 20.0 °C 15.7 °C 1028.0 hPa ENE 7.4 km/h 7.4 km/h 76 % 0.0 mm
10:53 20.4 °C 16.2 °C 1028.0 hPa ENE 7.4 km/h 7.4 km/h 77 % 0.0 mm
10:58 20.5 °C 16.1 °C 1029.0 hPa NE 7.4 km/h 7.4 km/h 76 % 0.0 mm
11:03 20.4 °C 15.8 °C 1029.0 hPa ENE 5.8 km/h 5.8 km/h 75 % 0.0 mm
11:08 19.9 °C 15.6 °C 1029.0 hPa NE 5.6 km/h 5.6 km/h 76 % 0.0 mm
11:13 20.0 °C 15.7 °C 1029.0 hPa ENE 5.6 km/h 5.6 km/h 76 % 0.0 mm
11:18 19.9 °C 15.6 °C 1029.0 hPa NNE 3.9 km/h 3.9 km/h 76 % 0.0 mm
11:23 19.9 °C 15.6 °C 1029.0 hPa NE 3.7 km/h 3.7 km/h 76 % 0.0 mm
11:28 20.0 °C 15.4 °C 1029.0 hPa NNE 3.7 km/h 3.7 km/h 75 % 0.0 mm
11:33 19.8 °C 15.4 °C 1029.0 hPa NNE 5.6 km/h 5.6 km/h 76 % 0.0 mm
11:38 19.8 °C 15.4 °C 1029.0 hPa ENE 3.7 km/h 3.7 km/h 76 % 0.0 mm
11:43 19.8 °C 15.4 °C 1029.0 hPa ENE 3.9 km/h 3.9 km/h 76 % 0.0 mm
11:48 19.8 °C 15.4 °C 1029.0 hPa NE 3.7 km/h 3.7 km/h 76 % 0.0 mm
11:53 19.8 °C 15.4 °C 1029.0 hPa NNE 3.7 km/h 3.7 km/h 76 % 0.0 mm
11:58 19.9 °C 15.6 °C 1029.0 hPa NE 3.7 km/h 3.7 km/h 76 % 0.0 mm
12:03 20.0 °C 15.4 °C 1029.0 hPa NNE 1.9 km/h 1.9 km/h 75 % 0.0 mm
12:08 20.0 °C 15.4 °C 1029.0 hPa North 3.7 km/h 3.7 km/h 75 % 0.0 mm
12:13 19.9 °C 15.3 °C 1028.0 hPa NE 3.7 km/h 3.7 km/h 75 % 0.0 mm
12:18 20.0 °C 15.4 °C 1028.0 hPa NNE 1.9 km/h 1.9 km/h 75 % 0.0 mm
12:23 20.0 °C 15.2 °C 1028.0 hPa Calm     74 % 0.0 mm
12:28 20.0 °C 15.2 °C 1028.0 hPa NE 1.9 km/h 1.9 km/h 74 % 0.0 mm
12:33 20.0 °C 15.2 °C 1028.0 hPa NE 4.2 km/h 4.2 km/h 74 % 0.0 mm
12:38 19.9 °C 15.3 °C 1028.0 hPa ENE 5.6 km/h 5.6 km/h 75 % 0.0 mm
12:43 20.0 °C 15.2 °C 1028.0 hPa ENE 3.7 km/h 3.7 km/h 74 % 0.0 mm
12:48 20.7 °C 15.9 °C 1028.0 hPa East 3.7 km/h 3.7 km/h 74 % 0.0 mm
12:53 21.1 °C 16.1 °C 1028.0 hPa NNE 3.7 km/h 3.7 km/h 73 % 0.0 mm
12:58 21.6 °C 16.6 °C 1028.0 hPa ENE 3.7 km/h 3.7 km/h 73 % 0.0 mm
13:03 22.0 °C 16.5 °C 1028.0 hPa NE 7.4 km/h 7.4 km/h 71 % 0.0 mm
13:08 22.2 °C 16.7 °C 1028.0 hPa NW 5.6 km/h 5.6 km/h 71 % 0.0 mm
13:13 22.5 °C 17.0 °C 1028.0 hPa NNE 5.6 km/h 5.6 km/h 71 % 0.0 mm
13:18 22.4 °C 16.7 °C 1028.0 hPa ENE 5.6 km/h 5.6 km/h 70 % 0.0 mm
13:23 22.5 °C 16.8 °C 1028.0 hPa SSE 3.7 km/h 3.7 km/h 70 % 0.0 mm
13:28 22.8 °C 17.1 °C 1028.0 hPa WSW 3.9 km/h 3.9 km/h 70 % 0.0 mm
13:33 23.1 °C 17.3 °C 1028.0 hPa NNW 4.2 km/h 4.2 km/h 70 % 0.0 mm
13:38 23.7 °C 17.7 °C 1028.0 hPa SW 7.4 km/h 7.4 km/h 69 % 0.0 mm
13:43 24.2 °C 17.9 °C 1028.0 hPa WSW 11.1 km/h 11.1 km/h 68 % 0.0 mm
13:48 23.7 °C 16.9 °C 1028.0 hPa ESE 3.7 km/h 3.7 km/h 66 % 0.0 mm
13:53 23.8 °C 17.3 °C 1028.0 hPa SSW 3.7 km/h 3.7 km/h 67 % 0.0 mm
13:58 24.4 °C 17.4 °C 1028.0 hPa SSE 5.6 km/h 5.6 km/h 65 % 0.0 mm
14:03 24.5 °C 17.5 °C 1028.0 hPa SW 5.6 km/h 5.6 km/h 65 % 0.0 mm
14:08 24.9 °C 17.6 °C 1028.0 hPa West 4.7 km/h 4.7 km/h 64 % 0.0 mm
14:13 24.7 °C 16.9 °C 1027.0 hPa West 4.2 km/h 4.2 km/h 62 % 0.0 mm
14:18 24.5 °C 17.0 °C 1027.0 hPa SSW 7.4 km/h 7.4 km/h 63 % 0.0 mm
14:23 24.2 °C 16.2 °C 1027.0 hPa SSE 7.4 km/h 7.4 km/h 61 % 0.0 mm
14:28 24.5 °C 16.5 °C 1027.0 hPa SSW 9.3 km/h 9.3 km/h 61 % 0.0 mm
14:33 25.0 °C 16.2 °C 1027.0 hPa SW 9.3 km/h 9.3 km/h 58 % 0.0 mm
14:38 25.4 °C 16.6 °C 1027.0 hPa SW 6.4 km/h 6.4 km/h 58 % 0.0 mm
14:39 25.5 °C 16.9 °C 1027.0 hPa SSW 7.4 km/h 7.4 km/h 59 % 0.0 mm
14:44 25.0 °C 16.2 °C 1026.0 hPa SSW 7.4 km/h 7.4 km/h 58 % 0.0 mm
14:49 24.9 °C 16.3 °C 1026.0 hPa South 5.6 km/h 5.6 km/h 59 % 0.0 mm
14:54 25.0 °C 15.6 °C 1026.0 hPa ESE 3.9 km/h 3.9 km/h 56 % 0.0 mm
14:59 24.9 °C 15.8 °C 1026.0 hPa SW 3.7 km/h 3.7 km/h 57 % 0.0 mm
15:04 25.0 °C 15.3 °C 1026.0 hPa SE 7.4 km/h 7.4 km/h 55 % 0.0 mm
15:09 25.5 °C 16.1 °C 1026.0 hPa West 5.6 km/h 5.6 km/h 56 % 0.0 mm
15:14 25.2 °C 15.2 °C 1026.0 hPa ESE 9.3 km/h 9.3 km/h 54 % 0.0 mm
15:19 25.5 °C 16.1 °C 1026.0 hPa North 7.4 km/h 7.4 km/h 56 % 0.0 mm
15:24 25.4 °C 15.4 °C 1026.0 hPa ENE 9.3 km/h 9.3 km/h 54 % 0.0 mm
15:29 25.0 °C 15.1 °C 1026.0 hPa SSE 7.4 km/h 7.4 km/h 54 % 0.0 mm
15:30 25.1 °C 15.1 °C 1026.0 hPa SSE 9.3 km/h 9.3 km/h 54 % 0.0 mm
15:35 25.5 °C 15.8 °C 1026.0 hPa SW 2.3 km/h 2.3 km/h 55 % 0.0 mm
15:40 25.4 °C 15.1 °C 1026.0 hPa WSW 7.4 km/h 7.4 km/h 53 % 0.0 mm
15:45 26.1 °C 16.1 °C 1026.0 hPa ESE 3.7 km/h 3.7 km/h 54 % 0.0 mm
15:50 25.8 °C 15.2 °C 1026.0 hPa ESE 6.4 km/h 6.4 km/h 52 % 0.0 mm
15:55 26.0 °C 15.7 °C 1026.0 hPa NE 7.4 km/h 7.4 km/h 53 % 0.0 mm
16:00 25.4 °C 15.4 °C 1026.0 hPa SSE 9.3 km/h 9.3 km/h 54 % 0.0 mm
16:05 25.1 °C 15.7 °C 1026.0 hPa ENE 6.1 km/h 6.4 km/h 56 % 0.0 mm
16:10 25.4 °C 16.0 °C 1026.0 hPa WSW 9.3 km/h 9.3 km/h 56 % 0.0 mm
16:15 26.0 °C 15.9 °C 1026.0 hPa ESE 7.4 km/h 7.4 km/h 54 % 0.0 mm
16:20 26.2 °C 15.9 °C 1026.0 hPa East 3.7 km/h 3.7 km/h 53 % 0.0 mm
16:25 25.8 °C 16.1 °C 1026.0 hPa SSW 3.7 km/h 3.7 km/h 55 % 0.0 mm
16:30 25.7 °C 16.6 °C 1026.0 hPa West 8.7 km/h 8.7 km/h 57 % 0.0 mm
16:35 26.0 °C 15.7 °C 1026.0 hPa SE 6.4 km/h 6.4 km/h 53 % 0.0 mm
16:40 25.4 °C 15.1 °C 1026.0 hPa SW 5.8 km/h 5.8 km/h 53 % 0.0 mm
16:45 25.7 °C 15.7 °C 1026.0 hPa WSW 9.3 km/h 9.3 km/h 54 % 0.0 mm
16:50 25.8 °C 15.5 °C 1026.0 hPa ESE 3.9 km/h 3.9 km/h 53 % 0.0 mm
16:55 25.6 °C 15.6 °C 1026.0 hPa West 7.4 km/h 7.4 km/h 54 % 0.0 mm
17:00 25.9 °C 15.6 °C 1026.0 hPa SW 5.6 km/h 5.6 km/h 53 % 0.0 mm
17:05 26.1 °C 15.8 °C 1026.0 hPa ESE 7.4 km/h 7.4 km/h 53 % 0.0 mm
17:10 26.4 °C 16.1 °C 1026.0 hPa SW 3.9 km/h 3.9 km/h 53 % 0.0 mm
17:15 26.4 °C 16.1 °C 1026.0 hPa SW 7.4 km/h 7.4 km/h 53 % 0.0 mm
17:20 26.3 °C 15.9 °C 1026.0 hPa SSW 5.6 km/h 5.6 km/h 53 % 0.0 mm
17:25 25.6 °C 15.0 °C 1026.0 hPa SSW 11.1 km/h 11.1 km/h 52 % 0.0 mm
17:30 25.6 °C 15.0 °C 1026.0 hPa SW 7.4 km/h 7.4 km/h 52 % 0.0 mm
17:35 25.3 °C 15.1 °C 1026.0 hPa WSW 7.4 km/h 7.4 km/h 53 % 0.0 mm
17:40 25.1 °C 14.8 °C 1026.0 hPa SSW 13.0 km/h 13.0 km/h 53 % 0.0 mm
17:45 24.9 °C 14.9 °C 1026.0 hPa WSW 9.3 km/h 9.3 km/h 54 % 0.0 mm
17:46 24.9 °C 14.9 °C 1026.0 hPa WSW 9.3 km/h 9.3 km/h 54 % 0.0 mm
17:51 25.0 °C 14.8 °C 1026.0 hPa SW 5.6 km/h 5.6 km/h 53 % 0.0 mm
17:56 24.9 °C 14.9 °C 1026.0 hPa SSW 9.3 km/h 9.3 km/h 54 % 0.0 mm
18:01 24.8 °C 14.8 °C 1026.0 hPa WSW 7.6 km/h 7.6 km/h 54 % 0.0 mm
18:06 24.5 °C 14.9 °C 1026.0 hPa SSW 7.4 km/h 7.4 km/h 55 % 0.0 mm
18:11 24.4 °C 14.8 °C 1026.0 hPa SW 13.0 km/h 13.0 km/h 55 % 0.0 mm
18:16 24.1 °C 14.5 °C 1026.0 hPa SSW 13.0 km/h 13.0 km/h 55 % 0.0 mm
18:21 23.8 °C 14.8 °C 1026.0 hPa SW 9.3 km/h 9.3 km/h 57 % 0.0 mm
18:26 23.7 °C 14.7 °C 1026.0 hPa SSW 5.6 km/h 5.6 km/h 57 % 0.0 mm
18:31 23.6 °C 14.6 °C 1026.0 hPa SSW 7.4 km/h 7.4 km/h 57 % 0.0 mm
18:36 23.4 °C 14.7 °C 1026.0 hPa SW 14.8 km/h 14.8 km/h 58 % 0.0 mm
18:41 23.1 °C 14.7 °C 1026.0 hPa West 5.6 km/h 5.8 km/h 59 % 0.0 mm
18:46 22.8 °C 14.4 °C 1026.0 hPa WSW 13.0 km/h 13.0 km/h 59 % 0.0 mm
18:51 22.6 °C 14.4 °C 1026.0 hPa SSW 9.3 km/h 9.3 km/h 60 % 0.0 mm
18:56 22.3 °C 14.4 °C 1026.0 hPa SW 9.3 km/h 9.3 km/h 61 % 0.0 mm
19:01 22.0 °C 14.4 °C 1026.0 hPa SW 5.6 km/h 5.6 km/h 62 % 0.0 mm
19:06 21.9 °C 14.6 °C 1026.0 hPa SW 7.4 km/h 7.4 km/h 63 % 0.0 mm
19:09 21.8 °C 14.4 °C 1026.0 hPa SW 5.6 km/h 5.6 km/h 63 % 0.0 mm
19:14 21.6 °C 14.5 °C 1026.0 hPa SW 7.4 km/h 7.4 km/h 64 % 0.0 mm
19:19 21.4 °C 14.3 °C 1026.0 hPa WSW 5.6 km/h 5.6 km/h 64 % 0.0 mm
19:24 21.2 °C 14.3 °C 1026.0 hPa South 9.3 km/h 9.3 km/h 65 % 0.0 mm
19:29 21.1 °C 14.3 °C 1026.0 hPa SW 7.4 km/h 7.4 km/h 65 % 0.0 mm
19:34 20.9 °C 14.3 °C 1026.0 hPa SW 7.4 km/h 7.4 km/h 66 % 0.0 mm
19:39 20.8 °C 14.2 °C 1026.0 hPa West 7.4 km/h 7.4 km/h 66 % 0.0 mm
19:44 20.7 °C 14.3 °C 1026.0 hPa SW 9.3 km/h 9.3 km/h 67 % 0.0 mm
19:49 20.6 °C 14.3 °C 1026.0 hPa SSW 11.1 km/h 11.1 km/h 67 % 0.0 mm
19:54 20.5 °C 14.4 °C 1026.0 hPa SW 5.6 km/h 5.6 km/h 68 % 0.0 mm
19:59 20.4 °C 14.5 °C 1027.0 hPa WSW 5.6 km/h 5.6 km/h 69 % 0.0 mm
20:04 20.3 °C 14.4 °C 1027.0 hPa WSW 5.6 km/h 5.6 km/h 69 % 0.0 mm
20:09 20.2 °C 14.6 °C 1027.0 hPa SW 5.6 km/h 5.6 km/h 70 % 0.0 mm
20:14 20.1 °C 14.4 °C 1027.0 hPa West 3.7 km/h 3.7 km/h 70 % 0.0 mm
20:19 20.1 °C 14.4 °C 1027.0 hPa SW 7.4 km/h 7.4 km/h 70 % 0.0 mm
20:24 20.0 °C 14.6 °C 1027.0 hPa SW 4.2 km/h 4.2 km/h 71 % 0.0 mm
20:29 19.9 °C 14.7 °C 1026.0 hPa SW 5.0 km/h 5.0 km/h 72 % 0.0 mm
20:34 19.8 °C 14.8 °C 1026.0 hPa SW 3.7 km/h 3.7 km/h 73 % 0.0 mm
20:39 19.7 °C 14.7 °C 1026.0 hPa WSW 3.7 km/h 3.7 km/h 73 % 0.0 mm
20:44 19.6 °C 14.6 °C 1027.0 hPa WSW 3.7 km/h 3.7 km/h 73 % 0.0 mm
20:49 19.5 °C 14.7 °C 1027.0 hPa SW 2.6 km/h 2.6 km/h 74 % 0.0 mm
20:54 19.4 °C 14.7 °C 1027.0 hPa WSW 1.9 km/h   74 % 0.0 mm
20:59 19.3 °C 14.8 °C 1027.0 hPa Calm     75 % 0.0 mm
21:04 19.3 °C 14.8 °C 1027.0 hPa West 3.7 km/h 3.7 km/h 75 % 0.0 mm
21:09 19.3 °C 14.8 °C 1027.0 hPa West 3.7 km/h   75 % 0.0 mm
21:14 19.2 °C 14.7 °C 1027.0 hPa Calm     75 % 0.0 mm
21:19 19.2 °C 14.9 °C 1027.0 hPa Calm     76 % 0.0 mm
21:24 19.0 °C 14.7 °C 1027.0 hPa Calm     76 % 0.0 mm
21:29 19.0 °C 14.7 °C 1027.0 hPa Calm     76 % 0.0 mm
21:34 19.0 °C 14.9 °C 1027.0 hPa Calm     77 % 0.0 mm
21:35 19.0 °C 14.9 °C 1027.0 hPa Calm     77 % 0.0 mm
21:40 18.9 °C 15.0 °C 1027.0 hPa Calm     78 % 0.0 mm
21:45 18.8 °C 14.9 °C 1027.0 hPa Calm     78 % 0.0 mm
21:50 18.8 °C 14.9 °C 1027.0 hPa Calm     78 % 0.0 mm
21:55 18.8 °C 14.9 °C 1027.0 hPa Calm     78 % 0.0 mm
22:00 18.7 °C 15.0 °C 1027.0 hPa Calm     79 % 0.0 mm
22:05 18.6 °C 14.9 °C 1027.0 hPa Calm     79 % 0.0 mm
22:10 18.6 °C 14.9 °C 1027.0 hPa Calm     79 % 0.0 mm
22:15 18.6 °C 14.9 °C 1027.0 hPa Calm     79 % 0.0 mm
22:20 18.5 °C 14.8 °C 1027.0 hPa Calm     79 % 0.0 mm
22:25 18.5 °C 14.8 °C 1027.0 hPa Calm     79 % 0.0 mm
22:30 18.5 °C 14.8 °C 1027.0 hPa Calm     79 % 0.0 mm
22:35 18.4 °C 14.9 °C 1027.0 hPa Calm     80 % 0.0 mm
22:40 18.4 °C 14.7 °C 1027.0 hPa Calm     79 % 0.0 mm
22:45 18.3 °C 14.8 °C 1027.0 hPa Calm     80 % 0.0 mm
22:50 18.3 °C 14.8 °C 1027.0 hPa Calm     80 % 0.0 mm
22:55 18.3 °C 14.8 °C 1027.0 hPa Calm     80 % 0.0 mm
23:00 18.3 °C 14.8 °C 1028.0 hPa Calm     80 % 0.0 mm
23:05 18.4 °C 15.1 °C 1028.0 hPa Calm     81 % 0.0 mm
23:10 18.3 °C 15.0 °C 1028.0 hPa Calm     81 % 0.0 mm
23:15 18.3 °C 15.0 °C 1027.0 hPa SSW 2.3 km/h   81 % 0.0 mm
23:20 18.3 °C 15.0 °C 1027.0 hPa Calm     81 % 0.0 mm
23:25 18.3 °C 15.2 °C 1027.0 hPa Calm     82 % 0.0 mm
23:30 18.2 °C 14.9 °C 1027.0 hPa Calm     81 % 0.0 mm
23:35 18.2 °C 14.9 °C 1027.0 hPa Calm     81 % 0.0 mm
23:40 18.1 °C 15.0 °C 1027.0 hPa Calm     82 % 0.0 mm
23:45 18.1 °C 15.0 °C 1028.0 hPa Calm     82 % 0.0 mm
23:50 18.1 °C 15.0 °C 1028.0 hPa Calm     82 % 0.0 mm
23:55 18.1 °C 15.0 °C 1028.0 hPa Calm     82 % 0.0 mm
Meteo Sesrovires
Elogis d' Weather Underground - 4 mb

Guio original per  Jim McMurry - jmcmurry@mwt.net Adaptat per a la plantilla per  Wim van der Kuil - Leuven-Template.eu

Trobareu la nostra informacio del temps tambe a:

Weather Underground

AWEKAS